< < Back
Terminal Aerodrome Forecast


Current Version              Previous Versions:   1  2  3  4  5  6  7  8  9  

Terminal Aerodrome Forecast

062
FTUS42 KTAE 182300
TAFTLH
TAF
KTLH 182320Z 1900/1924 00000KT P6SM FEW090 BKN250
     FM191500 09006KT P6SM SCT050 BKN250=

Latest METAR

208
SAUS80 KWBC 190000 CCA
MTRTLH
METAR KTLH 182353Z 17003KT 10SM SCT090 BKN250 28/19 A2991 RMK AO2 SLP125
T02830189 10333 20283 53007 $


USA.gov is the U.S. government's official web portal to all federal, state and local government web resources and services.